createdAt,value
2018-06-29T00:02:29.213Z,75.80
2018-06-29T00:05:00.157Z,75.90
2018-06-29T00:07:30.667Z,75.80
2018-06-29T00:10:01.593Z,76.30
2018-06-29T00:12:34.864Z,76.00
2018-06-29T00:15:05.851Z,76.50
2018-06-29T00:17:36.802Z,76.60
2018-06-29T00:20:08.484Z,76.90
2018-06-29T00:22:39.044Z,77.40
2018-06-29T00:25:10.019Z,77.50
2018-06-29T00:27:40.834Z,77.60
2018-06-29T00:30:11.272Z,78.40
2018-06-29T00:32:41.754Z,78.60
2018-06-29T00:35:14.078Z,78.10
2018-06-29T00:37:44.624Z,78.40
2018-06-29T00:40:15.597Z,78.40
2018-06-29T00:42:46.266Z,79.20
2018-06-29T00:45:16.882Z,79.60
2018-06-29T00:50:17.862Z,80.00
2018-06-29T00:52:48.275Z,79.40
2018-06-29T00:55:18.724Z,79.70
2018-06-29T00:57:52.045Z,80.30
2018-06-29T01:00:22.735Z,80.40
2018-06-29T01:02:53.815Z,79.80
2018-06-29T01:05:25.378Z,80.60
2018-06-29T01:07:56.425Z,80.30
2018-06-29T01:10:27.356Z,79.20
2018-06-29T01:14:12.941Z,79.40
2018-06-29T01:16:43.360Z,80.30
2018-06-29T01:19:14.606Z,80.20
2018-06-29T01:21:46.790Z,80.40
2018-06-29T01:24:17.334Z,80.40
2018-06-29T01:26:48.877Z,80.90
2018-06-29T01:29:20.003Z,81.40
2018-06-29T01:31:50.542Z,82.70
2018-06-29T01:34:21.386Z,82.60
2018-06-29T01:36:51.878Z,83.00
2018-06-29T01:39:22.520Z,83.70
2018-06-29T01:41:53.362Z,83.70
2018-06-29T01:44:24.148Z,82.30
2018-06-29T01:49:24.759Z,82.60
2018-06-29T01:51:55.744Z,82.90
2018-06-29T01:54:26.417Z,84.30
2018-06-29T01:56:57.666Z,82.70
2018-06-29T01:59:30.248Z,82.50
2018-06-29T02:02:00.833Z,81.80
2018-06-29T02:04:31.365Z,81.00
2018-06-29T02:07:01.751Z,81.60
2018-06-29T02:09:32.074Z,81.70
2018-06-29T02:12:03.296Z,82.30
2018-06-29T02:14:34.658Z,82.60
2018-06-29T02:17:05.047Z,83.80
2018-06-29T02:19:35.739Z,84.00
2018-06-29T02:22:06.922Z,84.60
2018-06-29T02:24:37.600Z,85.10
2018-06-29T02:27:08.893Z,85.00
2018-06-29T02:29:39.550Z,85.30
2018-06-29T02:32:10.131Z,85.30
2018-06-29T02:34:41.195Z,86.90
2018-06-29T02:37:12.038Z,85.60
2018-06-29T02:39:43.167Z,86.90
2018-06-29T02:42:14.372Z,87.10
2018-06-29T02:44:44.972Z,87.10
2018-06-29T02:47:15.603Z,86.40
2018-06-29T02:49:48.138Z,85.60
2018-06-29T02:52:18.715Z,85.30
2018-06-29T02:57:19.554Z,80.70
2018-06-29T02:59:50.324Z,79.40
2018-06-29T03:02:21.250Z,79.20
2018-06-29T03:04:54.147Z,77.80
2018-06-29T03:07:27.552Z,77.40
2018-06-29T03:09:58.998Z,77.10
2018-06-29T03:15:04.419Z,75.80
2018-06-29T03:17:44.458Z,76.30
2018-06-29T03:20:22.055Z,76.90
2018-06-29T03:22:53.892Z,77.20
2018-06-29T03:25:24.668Z,77.70
2018-06-29T03:27:55.992Z,77.70
2018-06-29T03:30:28.287Z,78.50
2018-06-29T03:32:59.865Z,78.60
2018-06-29T03:35:34.553Z,79.20
2018-06-29T03:38:07.614Z,79.70
2018-06-29T03:40:43.104Z,80.00
2018-06-29T03:43:21.516Z,80.10
2018-06-29T03:46:06.767Z,80.30
2018-06-29T03:51:20.287Z,80.20
2018-06-29T03:53:57.958Z,79.00
2018-06-29T03:59:38.160Z,79.40
2018-06-29T04:02:09.974Z,79.60
2018-06-29T04:04:40.521Z,79.80
2018-06-29T04:07:11.512Z,80.10
2018-06-29T04:09:42.757Z,80.20
2018-06-29T04:12:14.161Z,79.90
2018-06-29T04:17:46.700Z,79.70
2018-06-29T04:20:19.974Z,79.50
2018-06-29T04:22:51.101Z,79.50
2018-06-29T04:25:42.240Z,79.00
2018-06-29T04:31:04.695Z,78.70
2018-06-29T04:34:27.521Z,78.20
2018-06-29T04:37:16.630Z,77.70
2018-06-29T04:39:46.901Z,77.20
2018-06-29T04:42:18.779Z,76.10
2018-06-29T04:44:52.030Z,75.90
2018-06-29T04:47:22.283Z,75.50
2018-06-29T04:50:10.480Z,75.30
2018-06-29T04:52:41.586Z,74.70
2018-06-29T04:55:13.453Z,73.80
2018-06-29T04:57:45.233Z,74.30
2018-06-29T05:05:01.108Z,72.20
2018-06-29T05:10:44.437Z,65.30
2018-06-29T05:13:15.007Z,65.10
2018-06-29T05:16:04.521Z,66.10
2018-06-29T05:19:02.270Z,66.60
2018-06-29T05:40:01.591Z,64.40
2018-06-29T05:42:47.332Z,59.30
2018-06-29T05:45:17.952Z,56.00
2018-06-29T05:47:52.759Z,53.00
2018-06-29T05:50:51.840Z,51.40
2018-06-29T05:53:24.157Z,49.20
2018-06-29T05:55:57.663Z,49.60
2018-06-29T06:11:00.942Z,55.90
2018-06-29T06:13:35.012Z,55.60
2018-06-29T06:16:08.366Z,56.40
2018-06-29T06:18:38.824Z,56.10
2018-06-29T06:21:19.845Z,56.10
2018-06-29T06:24:03.532Z,55.90
2018-06-29T06:26:34.965Z,55.20
2018-06-29T06:29:11.728Z,55.40
2018-06-29T06:39:44.748Z,54.30
2018-06-29T06:42:36.027Z,52.50
2018-06-29T06:45:20.027Z,51.50
2018-06-29T06:48:10.864Z,50.30
2018-06-29T06:50:54.980Z,48.60
2018-06-29T06:54:50.209Z,47.60
2018-06-29T06:57:41.795Z,46.80
2018-06-29T07:00:15.168Z,45.90
2018-06-29T07:02:46.816Z,43.80
2018-06-29T07:05:17.692Z,43.80
2018-06-29T07:08:05.242Z,41.80
2018-06-29T07:35:07.843Z,39.30
2018-06-29T07:38:12.693Z,38.50
2018-06-29T09:28:44.499Z,32.30
2018-06-29T09:35:32.983Z,32.30
2018-06-29T09:45:09.546Z,31.20
2018-06-29T09:47:48.743Z,31.00
2018-06-29T09:58:11.156Z,29.00
2018-06-29T10:21:11.565Z,27.20
2018-06-29T10:24:00.129Z,27.80
2018-06-29T10:33:37.101Z,27.00
2018-06-29T10:36:22.322Z,26.70
2018-06-29T11:15:12.640Z,26.10
2018-06-29T11:24:22.289Z,24.60
2018-06-29T11:45:18.722Z,23.70
2018-06-29T11:47:59.598Z,23.00
2018-06-29T11:50:55.721Z,23.40
2018-06-29T11:54:01.687Z,23.90
2018-06-29T12:00:03.925Z,23.00
2018-06-29T12:23:22.014Z,21.80
2018-06-29T12:33:58.105Z,21.80
2018-06-29T12:37:57.969Z,20.80
2018-06-29T12:57:41.914Z,24.00
2018-06-29T13:26:15.668Z,29.50
2018-06-29T13:29:17.072Z,29.60
2018-06-29T13:31:57.807Z,29.60
2018-06-29T13:34:38.803Z,30.00
2018-06-29T14:02:10.580Z,28.80
2018-06-29T15:20:01.647Z,28.10
2018-06-29T15:22:33.998Z,28.50
2018-06-29T15:25:11.425Z,28.80
2018-06-29T15:34:28.424Z,29.80
2018-06-29T15:49:17.978Z,29.30
2018-06-29T15:52:08.709Z,28.90
2018-06-29T15:54:44.989Z,28.90
2018-06-29T15:57:20.923Z,28.90
2018-06-29T16:19:13.950Z,29.50
2018-06-29T16:22:11.488Z,29.30
2018-06-29T16:42:33.627Z,28.80
2018-06-29T16:46:59.915Z,28.90
2018-06-29T16:50:02.536Z,29.00
2018-06-29T16:55:57.661Z,29.00
2018-06-29T16:58:30.708Z,29.20
2018-06-29T17:07:28.487Z,28.90
2018-06-29T17:29:21.740Z,28.50
2018-06-29T17:32:34.480Z,29.40
2018-06-29T17:35:07.577Z,29.30
2018-06-29T17:37:42.897Z,29.30
2018-06-29T17:40:16.273Z,29.10
2018-06-29T17:42:48.764Z,29.30
2018-06-29T17:45:42.242Z,29.60
2018-06-29T17:56:55.770Z,30.00
2018-06-29T18:00:00.036Z,30.00
2018-06-29T18:03:00.346Z,30.20
2018-06-29T18:06:00.858Z,30.50
2018-06-29T18:08:47.974Z,30.90
2018-06-29T18:11:37.473Z,31.00
2018-06-29T18:24:15.877Z,32.30
2018-06-29T18:30:06.309Z,32.90
2018-06-29T18:32:41.175Z,32.90
2018-06-29T18:35:23.635Z,33.60
2018-06-29T18:38:24.442Z,33.40
2018-06-29T18:40:55.791Z,33.70
2018-06-29T18:43:49.775Z,34.00
2018-06-29T18:46:36.990Z,33.90
2018-06-29T18:49:15.105Z,34.20
2018-06-29T18:51:53.577Z,34.40
2018-06-29T18:55:04.956Z,34.50
2018-06-29T18:57:38.518Z,34.70
2018-06-29T19:00:21.844Z,34.90
2018-06-29T19:06:18.489Z,35.30
2018-06-29T19:09:22.787Z,35.30
2018-06-29T19:12:20.158Z,35.80
2018-06-29T19:14:57.897Z,35.90
2018-06-29T19:28:25.405Z,37.90
2018-06-29T19:31:25.435Z,37.70
2018-06-29T19:34:06.660Z,37.90
2018-06-29T19:36:57.404Z,38.00
2018-06-29T19:54:09.270Z,40.20
2018-06-29T20:02:50.619Z,41.30
2018-06-29T20:08:34.598Z,42.90
2018-06-29T20:11:09.831Z,43.50
2018-06-29T20:13:50.485Z,44.30
2018-06-29T20:19:31.856Z,45.20
2018-06-29T20:22:23.101Z,45.60
2018-06-29T20:24:55.772Z,46.40
2018-06-29T20:27:33.818Z,46.80
2018-06-29T20:30:13.169Z,47.20
2018-06-29T20:32:58.834Z,48.20
2018-06-29T20:35:38.093Z,48.30
2018-06-29T20:44:42.174Z,50.80
2018-06-29T20:47:49.303Z,51.10
2018-06-29T20:50:21.877Z,51.10
2018-06-29T20:53:01.851Z,52.30
2018-06-29T20:55:34.354Z,52.40
2018-06-29T20:58:12.622Z,52.10
2018-06-29T21:03:24.245Z,51.80
2018-06-29T21:05:58.462Z,51.50
2018-06-29T21:08:34.489Z,52.00
2018-06-29T21:11:08.681Z,51.80
2018-06-29T21:13:39.342Z,52.00
2018-06-29T21:16:16.223Z,53.80
2018-06-29T21:18:49.121Z,52.60
2018-06-29T21:21:22.486Z,52.70
2018-06-29T21:23:52.788Z,53.70
2018-06-29T21:26:23.103Z,53.50
2018-06-29T21:28:53.742Z,53.60
2018-06-29T21:31:26.763Z,54.60
2018-06-29T21:34:00.181Z,54.70
2018-06-29T21:36:30.841Z,54.60
2018-06-29T21:39:05.343Z,54.50
2018-06-29T21:41:38.565Z,55.60
2018-06-29T21:44:13.085Z,56.10
2018-06-29T21:46:43.970Z,56.10
2018-06-29T21:49:18.254Z,56.30
2018-06-29T21:52:00.553Z,57.00
2018-06-29T21:54:33.158Z,56.40
2018-06-29T21:57:12.599Z,56.90
2018-06-29T21:59:45.423Z,58.50
2018-06-29T22:05:07.704Z,58.00
2018-06-29T22:07:42.357Z,58.70
2018-06-29T22:10:16.886Z,59.00
2018-06-29T22:12:55.351Z,61.00
2018-06-29T22:15:33.163Z,60.90
2018-06-29T22:18:12.394Z,61.80
2018-06-29T22:20:52.146Z,61.80
2018-06-29T22:23:25.306Z,61.60
2018-06-29T22:26:00.186Z,60.50
2018-06-29T22:28:33.314Z,61.80
2018-06-29T22:31:19.923Z,60.10
2018-06-29T22:33:53.243Z,59.90
2018-06-29T22:36:31.100Z,60.70
2018-06-29T22:39:16.476Z,59.70
2018-06-29T22:42:09.258Z,59.40
2018-06-29T22:44:40.166Z,60.00
2018-06-29T22:47:11.372Z,60.50
2018-06-29T22:52:19.196Z,60.00
2018-06-29T22:54:54.000Z,60.80
2018-06-29T22:57:25.617Z,59.90
2018-06-29T22:59:56.908Z,59.70
2018-06-29T23:02:27.740Z,59.50
2018-06-29T23:04:58.777Z,59.80
2018-06-29T23:07:29.702Z,59.20
2018-06-29T23:10:00.398Z,59.00
2018-06-29T23:12:33.310Z,59.10
2018-06-29T23:15:04.187Z,59.10
2018-06-29T23:17:39.816Z,59.30
2018-06-29T23:20:12.450Z,59.20
2018-06-29T23:22:50.733Z,59.20
2018-06-29T23:25:32.229Z,59.50
2018-06-29T23:28:07.363Z,59.60
2018-06-29T23:30:50.469Z,59.80
2018-06-29T23:33:25.428Z,59.80
2018-06-29T23:35:57.939Z,60.70
2018-06-29T23:38:44.802Z,60.00
2018-06-29T23:41:20.205Z,60.50
2018-06-29T23:43:52.600Z,60.70
2018-06-29T23:46:42.817Z,61.00
2018-06-29T23:49:16.726Z,61.70
2018-06-29T23:54:25.384Z,62.50
2018-06-29T23:56:58.480Z,61.90
2018-06-29T23:59:46.361Z,62.60
